createdAt,value
2022-08-09T00:00:29.922Z,0.00
2022-08-09T00:01:40.319Z,0.00
2022-08-09T00:02:31.538Z,0.00
2022-08-09T00:04:10.347Z,0.00
2022-08-09T00:04:34.826Z,0.00
2022-08-09T00:06:19.162Z,0.00
2022-08-09T00:06:34.146Z,0.00
2022-08-09T00:07:44.617Z,0.00
2022-08-09T00:08:35.580Z,0.00
2022-08-09T00:09:35.455Z,0.00
2022-08-09T00:10:36.386Z,0.00
2022-08-09T00:11:55.031Z,0.00
2022-08-09T00:12:39.355Z,0.00
2022-08-09T00:13:38.564Z,0.00
2022-08-09T00:14:39.264Z,0.00
2022-08-09T00:15:59.197Z,0.00
2022-08-09T00:16:41.448Z,0.00
2022-08-09T00:18:10.307Z,0.00
2022-08-09T00:18:43.112Z,0.00
2022-08-09T00:19:42.984Z,0.00
2022-08-09T00:20:49.694Z,0.00
2022-08-09T00:21:56.140Z,0.00
2022-08-09T00:22:47.310Z,0.00
2022-08-09T00:23:56.447Z,0.00
2022-08-09T00:24:48.003Z,0.00
2022-08-09T00:25:51.689Z,0.00
2022-08-09T00:26:48.335Z,0.00
2022-08-09T00:27:49.213Z,0.00
2022-08-09T00:28:52.228Z,0.00
2022-08-09T00:30:23.357Z,0.00
2022-08-09T00:30:52.430Z,0.00
2022-08-09T00:31:59.243Z,0.00
2022-08-09T00:32:54.126Z,0.00
2022-08-09T00:33:53.762Z,0.00
2022-08-09T00:34:54.643Z,0.00
2022-08-09T00:35:55.297Z,0.00
2022-08-09T00:36:55.822Z,0.00
2022-08-09T00:37:56.815Z,0.00
2022-08-09T00:38:57.702Z,0.00
2022-08-09T00:40:13.020Z,0.00
2022-08-09T00:41:00.427Z,0.00
2022-08-09T00:44:13.033Z,0.00
2022-08-09T00:44:15.930Z,0.00
2022-08-09T00:44:16.376Z,0.00
2022-08-09T00:45:03.584Z,0.00
2022-08-09T00:46:04.237Z,0.00
2022-08-09T00:47:05.392Z,0.00
2022-08-09T00:48:04.651Z,0.00
2022-08-09T00:49:05.447Z,0.00
2022-08-09T00:50:06.351Z,0.00
2022-08-09T00:51:10.264Z,0.00
2022-08-09T00:52:17.744Z,0.00
2022-08-09T00:53:10.973Z,0.00
2022-08-09T00:54:09.713Z,0.00
2022-08-09T00:55:32.683Z,0.00
2022-08-09T00:56:12.385Z,0.00
2022-08-09T00:57:12.188Z,0.00
2022-08-09T00:58:14.882Z,0.00
2022-08-09T00:59:14.865Z,0.00
2022-08-09T01:00:20.588Z,0.00
2022-08-09T01:01:16.518Z,0.00
2022-08-09T01:02:15.906Z,0.00
2022-08-09T01:03:16.797Z,0.00
2022-08-09T01:04:17.773Z,0.00
2022-08-09T01:05:22.153Z,0.00
2022-08-09T01:06:19.274Z,0.00
2022-08-09T01:07:20.152Z,0.00
2022-08-09T01:08:26.712Z,0.00
2022-08-09T01:09:23.326Z,0.00
2022-08-09T01:10:22.199Z,0.00
2022-08-09T01:11:22.774Z,0.00
2022-08-09T01:12:23.818Z,0.00
2022-08-09T01:13:24.345Z,0.00
2022-08-09T01:14:26.110Z,0.00
2022-08-09T01:15:25.993Z,0.00
2022-08-09T01:16:26.877Z,0.00
2022-08-09T01:17:30.378Z,0.00
2022-08-09T01:18:31.396Z,0.00
2022-08-09T01:19:43.035Z,0.00
2022-08-09T01:20:31.211Z,0.00
2022-08-09T01:21:44.590Z,0.00
2022-08-09T01:22:33.242Z,0.00
2022-08-09T01:24:01.930Z,0.00
2022-08-09T01:24:34.425Z,0.00
2022-08-09T01:25:37.497Z,0.00
2022-08-09T01:26:36.077Z,0.00
2022-08-09T01:27:35.963Z,0.00
2022-08-09T01:28:36.563Z,0.00
2022-08-09T01:29:41.206Z,0.00
2022-08-09T01:30:51.721Z,0.00
2022-08-09T01:32:29.924Z,0.00
2022-08-09T01:32:45.502Z,0.00
2022-08-09T01:33:41.172Z,0.00
2022-08-09T01:34:41.056Z,0.00
2022-08-09T01:35:42.358Z,0.00
2022-08-09T01:36:42.318Z,0.00
2022-08-09T01:38:08.264Z,0.00
2022-08-09T01:38:46.327Z,0.00
2022-08-09T01:39:44.551Z,0.00
2022-08-09T01:40:45.236Z,0.00
2022-08-09T01:41:55.671Z,0.00
2022-08-09T01:42:47.770Z,0.00
2022-08-09T01:43:50.422Z,0.00
2022-08-09T01:44:48.268Z,0.00
2022-08-09T01:45:49.150Z,0.00
2022-08-09T01:46:50.034Z,0.00
2022-08-09T01:47:50.918Z,0.00
2022-08-09T01:48:51.880Z,0.00
2022-08-09T01:49:54.696Z,0.00
2022-08-09T01:50:55.189Z,0.00
2022-08-09T01:51:54.733Z,0.00
2022-08-09T01:52:55.185Z,0.00
2022-08-09T01:53:58.032Z,0.00
2022-08-09T01:54:57.051Z,0.00
2022-08-09T01:55:57.942Z,0.00
2022-08-09T01:56:58.580Z,0.00
2022-08-09T01:58:00.337Z,0.00
2022-08-09T01:58:59.990Z,0.00
2022-08-09T02:00:19.301Z,0.00
2022-08-09T02:01:02.658Z,0.00
2022-08-09T02:02:02.349Z,0.00
2022-08-09T02:03:02.793Z,0.00
2022-08-09T02:04:03.698Z,0.00
2022-08-09T02:05:05.457Z,0.00
2022-08-09T02:06:06.897Z,0.00
2022-08-09T02:07:05.936Z,0.00
2022-08-09T02:08:35.412Z,0.00
2022-08-09T02:09:08.595Z,0.00
2022-08-09T02:10:08.513Z,0.00
2022-08-09T02:11:16.881Z,0.00
2022-08-09T02:12:10.929Z,0.00
2022-08-09T02:13:10.836Z,0.00
2022-08-09T02:14:15.799Z,0.00
2022-08-09T02:15:16.646Z,0.00
2022-08-09T02:16:13.469Z,0.00
2022-08-09T02:17:29.617Z,0.00
2022-08-09T02:18:15.794Z,0.00
2022-08-09T02:19:15.408Z,0.00
2022-08-09T02:20:25.113Z,0.00
2022-08-09T02:21:22.194Z,0.00
2022-08-09T02:22:19.095Z,0.00
2022-08-09T02:23:19.689Z,0.00
2022-08-09T02:24:25.776Z,0.00
2022-08-09T02:25:21.344Z,0.00
2022-08-09T02:26:24.982Z,0.00
2022-08-09T02:27:43.044Z,0.00
2022-08-09T02:28:24.266Z,0.00
2022-08-09T02:29:23.648Z,0.00
2022-08-09T02:30:26.343Z,0.00
2022-08-09T02:31:25.306Z,0.00
2022-08-09T02:32:25.982Z,0.00
2022-08-09T02:33:38.024Z,0.00
2022-08-09T02:34:40.977Z,0.00
2022-08-09T02:36:01.252Z,0.00
2022-08-09T02:36:30.211Z,0.00
2022-08-09T02:37:31.699Z,0.00
2022-08-09T02:38:31.511Z,0.00
2022-08-09T02:39:34.059Z,0.00
2022-08-09T02:40:33.200Z,0.00
2022-08-09T02:41:32.662Z,0.00
2022-08-09T02:42:33.796Z,0.00
2022-08-09T02:43:53.899Z,0.00
2022-08-09T02:44:36.064Z,0.00
2022-08-09T02:45:35.953Z,0.00
2022-08-09T02:46:36.497Z,0.00
2022-08-09T02:47:46.378Z,0.00
2022-08-09T02:48:39.191Z,0.00
2022-08-09T02:49:41.315Z,0.00
2022-08-09T02:50:39.943Z,0.00
2022-08-09T02:51:40.916Z,0.00
2022-08-09T02:52:41.724Z,0.00
2022-08-09T02:53:43.185Z,0.00
2022-08-09T02:54:54.578Z,0.00
2022-08-09T02:55:53.729Z,0.00
2022-08-09T02:56:51.195Z,0.00
2022-08-09T02:58:00.115Z,0.00
2022-08-09T02:58:47.471Z,0.00
2022-08-09T03:00:11.489Z,0.00
2022-08-09T03:00:58.124Z,0.00
2022-08-09T03:02:06.471Z,0.00
2022-08-09T03:03:00.041Z,0.00
2022-08-09T03:04:16.710Z,0.00
2022-08-09T03:04:51.846Z,0.00
2022-08-09T03:05:51.598Z,0.00
2022-08-09T03:06:52.417Z,0.00
2022-08-09T03:07:54.915Z,0.00
2022-08-09T03:08:54.280Z,0.00
2022-08-09T03:09:56.829Z,0.00
2022-08-09T03:10:56.946Z,0.00
2022-08-09T03:12:06.556Z,0.00
2022-08-09T03:12:58.252Z,0.00
2022-08-09T03:14:01.380Z,0.00
2022-08-09T03:14:58.681Z,0.00
2022-08-09T03:16:06.667Z,0.00
2022-08-09T03:17:01.761Z,0.00
2022-08-09T03:18:01.236Z,0.00
2022-08-09T03:19:03.016Z,0.00
2022-08-09T03:20:05.220Z,0.00
2022-08-09T03:21:04.412Z,0.00
2022-08-09T03:22:04.292Z,0.00
2022-08-09T03:23:14.735Z,0.00
2022-08-09T03:24:06.943Z,0.00
2022-08-09T03:25:26.329Z,0.00
2022-08-09T03:26:08.218Z,0.00
2022-08-09T03:27:07.810Z,0.00
2022-08-09T03:28:11.359Z,0.00
2022-08-09T03:29:09.641Z,0.00
2022-08-09T03:30:11.120Z,0.00
2022-08-09T03:31:21.279Z,0.00
2022-08-09T03:32:12.852Z,0.00
2022-08-09T03:33:18.844Z,0.00
2022-08-09T03:34:14.530Z,0.00
2022-08-09T03:35:24.323Z,0.00
2022-08-09T03:36:17.336Z,0.00
2022-08-09T03:37:55.958Z,0.00
2022-08-09T03:38:30.285Z,0.00
2022-08-09T03:39:18.286Z,0.00
2022-08-09T03:40:18.360Z,0.00
2022-08-09T03:41:18.729Z,0.00
2022-08-09T03:42:19.581Z,0.00
2022-08-09T03:43:21.315Z,0.00
2022-08-09T03:44:21.205Z,0.00
2022-08-09T03:46:04.207Z,0.00
2022-08-09T03:46:29.262Z,0.00
2022-08-09T03:47:24.520Z,0.00
2022-08-09T03:48:30.830Z,0.00
2022-08-09T03:49:26.197Z,0.00
2022-08-09T03:50:27.955Z,0.00
2022-08-09T03:51:57.382Z,0.00
2022-08-09T03:52:28.370Z,0.00
2022-08-09T03:53:32.230Z,0.00
2022-08-09T03:54:31.216Z,0.00
2022-08-09T03:55:30.114Z,0.00
2022-08-09T03:56:31.087Z,0.00
2022-08-09T03:57:30.906Z,0.00
2022-08-09T03:58:31.677Z,0.00
2022-08-09T03:59:53.441Z,0.00
2022-08-09T04:00:34.145Z,0.00
2022-08-09T04:01:33.955Z,0.00
2022-08-09T04:02:34.849Z,0.00
2022-08-09T04:03:45.766Z,0.00
2022-08-09T04:04:38.879Z,0.00
2022-08-09T04:05:40.386Z,0.00
2022-08-09T04:06:37.429Z,0.00
2022-08-09T04:07:53.169Z,0.00
2022-08-09T04:08:39.715Z,0.00
2022-08-09T04:09:47.477Z,0.00
2022-08-09T04:10:41.256Z,0.00
2022-08-09T04:11:41.086Z,0.00
2022-08-09T04:12:44.400Z,0.00
2022-08-09T04:14:37.214Z,0.00
2022-08-09T04:15:00.379Z,0.00
2022-08-09T04:16:18.406Z,0.00
2022-08-09T04:16:45.276Z,0.00
2022-08-09T04:17:44.796Z,0.00
2022-08-09T04:18:45.882Z,0.00
2022-08-09T04:19:51.631Z,0.00
2022-08-09T04:20:48.433Z,0.00
2022-08-09T04:21:48.240Z,0.00
2022-08-09T04:22:49.067Z,0.00
2022-08-09T04:23:53.794Z,0.00
2022-08-09T04:24:50.355Z,0.00
2022-08-09T04:25:52.075Z,0.00
2022-08-09T04:26:51.812Z,0.00
2022-08-09T04:27:52.630Z,0.00
2022-08-09T04:28:57.416Z,0.00
2022-08-09T04:29:55.187Z,0.00
2022-08-09T04:30:55.015Z,0.00
2022-08-09T04:31:57.957Z,0.00
2022-08-09T04:32:56.438Z,0.00
2022-08-09T04:33:59.363Z,0.00
2022-08-09T04:34:57.851Z,0.00
2022-08-09T04:35:58.618Z,0.00
2022-08-09T04:36:59.444Z,0.00
2022-08-09T04:38:03.597Z,0.00
2022-08-09T04:39:01.144Z,0.00
2022-08-09T04:40:02.217Z,0.00
2022-08-09T04:41:02.539Z,0.00
2022-08-09T04:42:03.349Z,0.00
2022-08-09T04:43:05.452Z,0.00
2022-08-09T04:44:09.721Z,0.00
2022-08-09T04:45:06.625Z,0.00
2022-08-09T04:46:06.586Z,0.00
2022-08-09T04:47:08.287Z,0.00
2022-08-09T04:48:10.413Z,0.00
2022-08-09T04:49:08.889Z,0.00
2022-08-09T04:50:10.630Z,0.00
2022-08-09T04:51:10.448Z,0.00
2022-08-09T04:52:11.296Z,0.00
2022-08-09T04:53:13.802Z,0.00
2022-08-09T04:54:12.686Z,0.00
2022-08-09T04:55:13.546Z,0.00
2022-08-09T04:56:14.400Z,0.00
2022-08-09T04:57:16.114Z,0.00
2022-08-09T04:58:16.832Z,0.00
2022-08-09T04:59:16.677Z,0.00
2022-08-09T05:00:17.394Z,0.00
2022-08-09T05:01:18.782Z,0.00
2022-08-09T05:02:18.786Z,0.00
2022-08-09T05:03:40.057Z,0.00
2022-08-09T05:04:21.273Z,0.00
2022-08-09T05:05:32.010Z,0.00
2022-08-09T05:06:26.873Z,0.00
2022-08-09T05:07:23.519Z,0.00
2022-08-09T05:08:23.502Z,0.00
2022-08-09T05:09:24.000Z,0.00
2022-08-09T05:10:24.698Z,5.62
2022-08-09T05:11:25.525Z,0.00
2022-08-09T05:12:27.243Z,0.00
2022-08-09T05:13:27.102Z,5.62
2022-08-09T05:14:28.027Z,5.62
2022-08-09T05:15:39.251Z,0.00
2022-08-09T05:16:31.939Z,5.62
2022-08-09T05:18:39.507Z,5.62
2022-08-09T05:18:50.777Z,5.62
2022-08-09T05:19:44.958Z,5.62
2022-08-09T05:20:33.060Z,5.62
2022-08-09T05:21:36.428Z,5.62
2022-08-09T05:23:55.250Z,5.62
2022-08-09T05:23:57.149Z,5.62
2022-08-09T05:24:35.925Z,5.62
2022-08-09T05:25:35.770Z,5.62
2022-08-09T05:26:45.808Z,5.62
2022-08-09T05:27:38.915Z,5.62
2022-08-09T05:28:39.097Z,5.62
2022-08-09T05:29:38.644Z,5.62
2022-08-09T05:30:41.819Z,5.62
2022-08-09T05:31:45.947Z,5.62
2022-08-09T05:32:42.052Z,5.62
2022-08-09T05:33:42.429Z,5.62
2022-08-09T05:34:45.659Z,5.62
2022-08-09T05:35:46.682Z,5.62
2022-08-09T05:36:47.221Z,5.62
2022-08-09T05:37:47.579Z,5.62
2022-08-09T05:38:46.945Z,5.62
2022-08-09T05:39:46.312Z,5.62
2022-08-09T05:40:50.657Z,5.62
2022-08-09T05:41:47.655Z,5.62
2022-08-09T05:42:48.246Z,5.62
2022-08-09T05:43:49.477Z,5.62
2022-08-09T05:44:50.695Z,11.25
2022-08-09T05:45:55.656Z,11.25
2022-08-09T05:46:52.247Z,11.25
2022-08-09T05:47:54.281Z,11.25
2022-08-09T05:48:58.602Z,11.25
2022-08-09T05:50:30.292Z,11.25
2022-08-09T05:51:16.892Z,11.25
2022-08-09T05:51:55.844Z,11.25
2022-08-09T05:52:55.583Z,11.25
2022-08-09T05:53:56.901Z,11.25
2022-08-09T05:54:57.326Z,11.25
2022-08-09T05:55:59.046Z,11.25
2022-08-09T05:56:58.895Z,11.25
2022-08-09T05:57:59.566Z,11.25
2022-08-09T05:59:00.148Z,11.25
2022-08-09T06:00:00.976Z,16.88
2022-08-09T06:01:01.512Z,16.88
2022-08-09T06:02:02.325Z,16.88
2022-08-09T06:03:03.371Z,22.50
2022-08-09T06:04:05.936Z,22.50
2022-08-09T06:05:04.378Z,16.88
2022-08-09T06:06:05.995Z,16.88
2022-08-09T06:07:06.198Z,16.88
2022-08-09T06:08:09.089Z,11.25
2022-08-09T06:09:09.967Z,16.88
2022-08-09T06:10:15.814Z,16.88
2022-08-09T06:11:16.550Z,16.88
2022-08-09T06:12:11.239Z,16.88
2022-08-09T06:13:12.239Z,16.88
2022-08-09T06:14:12.939Z,11.25
2022-08-09T06:15:12.770Z,11.25
2022-08-09T06:16:13.543Z,11.25
2022-08-09T06:17:14.374Z,11.25
2022-08-09T06:18:15.824Z,11.25
2022-08-09T06:19:16.052Z,11.25
2022-08-09T06:20:18.393Z,11.25
2022-08-09T06:21:17.686Z,11.25
2022-08-09T06:22:18.401Z,11.25
2022-08-09T06:23:20.105Z,16.88
2022-08-09T06:24:19.935Z,16.88
2022-08-09T06:25:21.309Z,16.88
2022-08-09T06:26:22.148Z,11.25
2022-08-09T06:27:22.381Z,11.25
2022-08-09T06:28:22.939Z,11.25
2022-08-09T06:29:24.788Z,11.25
2022-08-09T06:30:24.170Z,11.25
2022-08-09T06:31:31.449Z,11.25
2022-08-09T06:33:00.999Z,11.25
2022-08-09T06:33:39.727Z,11.25
2022-08-09T06:34:29.809Z,11.25
2022-08-09T06:35:35.651Z,16.88
2022-08-09T06:36:30.095Z,16.88
2022-08-09T06:37:29.379Z,16.88
2022-08-09T06:38:32.225Z,22.50
2022-08-09T06:39:49.206Z,22.50
2022-08-09T06:40:33.369Z,22.50
2022-08-09T06:41:58.847Z,22.50
2022-08-09T06:42:34.341Z,22.50
2022-08-09T06:43:34.801Z,22.50
2022-08-09T06:44:34.630Z,22.50
2022-08-09T06:46:07.312Z,22.50
2022-08-09T06:46:40.161Z,22.50
2022-08-09T06:47:39.784Z,22.50
2022-08-09T06:48:42.713Z,28.12
2022-08-09T06:50:11.475Z,33.75
2022-08-09T06:50:40.638Z,33.75
2022-08-09T06:51:40.592Z,33.75
2022-08-09T06:52:41.140Z,28.12
2022-08-09T06:53:41.962Z,28.12
2022-08-09T06:54:42.573Z,28.12
2022-08-09T06:55:43.324Z,22.50
2022-08-09T06:56:46.344Z,22.50
2022-08-09T06:58:02.795Z,22.50
2022-08-09T07:00:49.653Z,22.50
2022-08-09T07:00:50.167Z,22.50
2022-08-09T07:00:58.532Z,22.50
2022-08-09T07:01:58.064Z,22.50
2022-08-09T07:02:49.419Z,22.50
2022-08-09T07:03:52.501Z,22.50
2022-08-09T07:04:50.196Z,28.12
2022-08-09T07:05:58.185Z,28.12
2022-08-09T07:06:53.063Z,28.12
2022-08-09T07:07:59.511Z,28.12
2022-08-09T07:08:54.158Z,28.12
2022-08-09T07:10:00.154Z,28.12
2022-08-09T07:10:55.711Z,33.75
2022-08-09T07:11:55.544Z,39.38
2022-08-09T07:12:57.521Z,39.38
2022-08-09T07:14:04.181Z,50.62
2022-08-09T07:14:58.677Z,50.62
2022-08-09T07:16:39.085Z,56.25
2022-08-09T07:17:00.126Z,67.50
2022-08-09T07:18:02.230Z,90.00
2022-08-09T07:19:00.807Z,123.75
2022-08-09T07:20:01.643Z,151.88
2022-08-09T07:21:02.455Z,163.12
2022-08-09T07:22:04.180Z,180.00
2022-08-09T07:23:04.003Z,196.88
2022-08-09T07:24:05.731Z,202.50
2022-08-09T07:25:09.457Z,202.50
2022-08-09T07:26:06.224Z,202.50
2022-08-09T07:27:11.054Z,202.50
2022-08-09T07:28:08.468Z,196.88
2022-08-09T07:29:12.008Z,185.62
2022-08-09T07:30:09.750Z,180.00
2022-08-09T07:31:09.580Z,174.38
2022-08-09T07:32:10.486Z,168.75
2022-08-09T07:33:14.834Z,163.12
2022-08-09T07:34:19.567Z,151.88
2022-08-09T07:35:14.692Z,146.25
2022-08-09T07:36:13.647Z,140.62
2022-08-09T07:37:15.818Z,129.38
2022-08-09T07:38:15.326Z,123.75
2022-08-09T07:39:19.779Z,118.12
2022-08-09T07:40:18.882Z,118.12
2022-08-09T07:41:17.908Z,112.50
2022-08-09T07:42:18.267Z,106.88
2022-08-09T07:43:19.151Z,101.25
2022-08-09T07:44:24.250Z,95.62
2022-08-09T07:45:23.673Z,90.00
2022-08-09T07:46:22.271Z,90.00
2022-08-09T07:47:23.209Z,84.38
2022-08-09T07:48:30.516Z,84.38
2022-08-09T07:49:24.480Z,78.75
2022-08-09T07:50:35.083Z,78.75
2022-08-09T07:52:05.420Z,78.75
2022-08-09T07:52:26.461Z,78.75
2022-08-09T07:54:04.064Z,78.75
2022-08-09T07:54:30.932Z,78.75
2022-08-09T07:55:28.783Z,78.75
2022-08-09T07:56:30.897Z,78.75
2022-08-09T07:57:33.768Z,78.75
2022-08-09T07:58:30.376Z,78.75
2022-08-09T07:59:45.300Z,78.75
2022-08-09T08:00:36.271Z,78.75
2022-08-09T08:01:34.176Z,78.75
2022-08-09T08:02:33.679Z,78.75
2022-08-09T08:03:37.002Z,78.75
2022-08-09T08:04:34.920Z,78.75
2022-08-09T08:05:53.646Z,84.38
2022-08-09T08:06:37.467Z,84.38
2022-08-09T08:08:43.693Z,84.38
2022-08-09T08:09:02.523Z,84.38
2022-08-09T08:09:46.022Z,84.38
2022-08-09T08:10:40.334Z,78.75
2022-08-09T08:12:12.092Z,78.75
2022-08-09T08:12:43.530Z,73.12
2022-08-09T08:13:56.314Z,61.88
2022-08-09T08:14:43.044Z,56.25
2022-08-09T08:15:42.751Z,50.62
2022-08-09T08:17:00.341Z,45.00
2022-08-09T08:17:54.855Z,39.38
2022-08-09T08:18:46.023Z,39.38
2022-08-09T08:19:45.615Z,39.38
2022-08-09T08:20:46.559Z,39.38
2022-08-09T08:21:52.633Z,39.38
2022-08-09T08:22:49.168Z,39.38
2022-08-09T08:23:56.130Z,39.38
2022-08-09T08:24:51.030Z,39.38
2022-08-09T08:26:06.230Z,39.38
2022-08-09T08:26:55.763Z,39.38
2022-08-09T08:27:51.570Z,39.38
2022-08-09T08:28:52.409Z,39.38
2022-08-09T08:29:53.244Z,39.38
2022-08-09T08:30:55.095Z,39.38
2022-08-09T08:32:03.847Z,39.38
2022-08-09T08:32:56.435Z,39.38
2022-08-09T08:33:56.276Z,39.38
2022-08-09T08:34:58.528Z,39.38
2022-08-09T08:36:00.535Z,39.38
2022-08-09T08:36:59.236Z,33.75
2022-08-09T08:38:02.209Z,33.75
2022-08-09T08:39:00.754Z,33.75
2022-08-09T08:40:00.572Z,33.75
2022-08-09T08:41:01.766Z,33.75
2022-08-09T08:42:02.184Z,33.75
2022-08-09T08:43:02.719Z,33.75
2022-08-09T08:44:04.435Z,33.75
2022-08-09T08:45:11.695Z,33.75
2022-08-09T08:46:32.530Z,33.75
2022-08-09T08:47:12.875Z,33.75
2022-08-09T08:48:10.267Z,33.75
2022-08-09T08:49:08.276Z,33.75
2022-08-09T08:50:08.155Z,33.75
2022-08-09T08:51:09.080Z,33.75
2022-08-09T08:52:10.047Z,33.75
2022-08-09T08:53:12.015Z,33.75
2022-08-09T08:54:20.317Z,33.75
2022-08-09T08:55:13.656Z,33.75
2022-08-09T08:56:25.073Z,33.75
2022-08-09T08:57:14.929Z,33.75
2022-08-09T08:58:14.485Z,33.75
2022-08-09T08:59:19.143Z,33.75
2022-08-09T09:00:21.183Z,33.75
2022-08-09T09:01:24.632Z,33.75
2022-08-09T09:02:21.032Z,33.75
2022-08-09T09:03:32.959Z,33.75
2022-08-09T09:04:27.396Z,33.75
2022-08-09T09:05:20.416Z,33.75
2022-08-09T09:06:21.132Z,33.75
2022-08-09T09:07:20.894Z,33.75
2022-08-09T09:08:30.733Z,33.75
2022-08-09T09:09:59.614Z,39.38
2022-08-09T09:10:24.159Z,39.38
2022-08-09T09:11:24.040Z,39.38
2022-08-09T09:12:24.879Z,39.38
2022-08-09T09:13:34.658Z,39.38
2022-08-09T09:14:27.165Z,39.38
2022-08-09T09:15:28.190Z,39.38
2022-08-09T09:16:29.862Z,39.38
2022-08-09T09:17:46.401Z,39.38
2022-08-09T09:18:29.948Z,39.38
2022-08-09T09:19:40.895Z,39.38
2022-08-09T09:20:31.425Z,39.38
2022-08-09T09:21:30.944Z,39.38
2022-08-09T09:22:32.691Z,39.38
2022-08-09T09:23:37.551Z,39.38
2022-08-09T09:24:34.693Z,39.38
2022-08-09T09:26:03.745Z,39.38
2022-08-09T09:26:35.808Z,39.38
2022-08-09T09:28:05.631Z,39.38
2022-08-09T09:28:39.079Z,39.38
2022-08-09T09:30:08.587Z,39.38
2022-08-09T09:30:41.194Z,45.00
2022-08-09T09:32:06.893Z,45.00
2022-08-09T09:32:40.190Z,45.00
2022-08-09T09:33:44.881Z,39.38
2022-08-09T09:34:41.737Z,39.38
2022-08-09T09:35:46.209Z,39.38
2022-08-09T09:36:51.290Z,39.38
2022-08-09T09:37:43.943Z,39.38
2022-08-09T09:38:43.770Z,39.38
2022-08-09T09:39:56.681Z,39.38
2022-08-09T09:40:46.556Z,45.00
2022-08-09T09:41:49.259Z,45.00
2022-08-09T09:42:46.800Z,39.38
2022-08-09T09:44:12.572Z,39.38
2022-08-09T09:44:49.356Z,39.38
2022-08-09T09:45:57.205Z,39.38
2022-08-09T09:46:52.050Z,39.38
2022-08-09T09:47:58.253Z,39.38
2022-08-09T09:48:52.135Z,39.38
2022-08-09T09:50:07.065Z,33.75
2022-08-09T09:50:53.885Z,33.75
2022-08-09T09:51:53.231Z,33.75
2022-08-09T09:52:56.851Z,33.75
2022-08-09T09:54:00.939Z,33.75
2022-08-09T09:54:55.979Z,33.75
2022-08-09T09:56:03.844Z,33.75
2022-08-09T09:58:00.819Z,33.75
2022-08-09T09:58:03.081Z,33.75
2022-08-09T09:58:58.962Z,33.75
2022-08-09T09:59:58.845Z,33.75
2022-08-09T10:01:00.164Z,33.75
2022-08-09T10:02:00.221Z,33.75
2022-08-09T10:03:01.085Z,33.75
2022-08-09T10:04:08.891Z,33.75
2022-08-09T10:05:03.519Z,33.75
2022-08-09T10:06:05.038Z,33.75
2022-08-09T10:07:09.976Z,33.75
2022-08-09T10:08:26.950Z,33.75
2022-08-09T10:09:11.923Z,33.75
2022-08-09T10:10:06.795Z,33.75
2022-08-09T10:11:39.565Z,33.75
2022-08-09T10:12:14.473Z,33.75
2022-08-09T10:13:10.130Z,28.12
2022-08-09T10:14:08.951Z,28.12
2022-08-09T10:15:17.248Z,28.12
2022-08-09T10:16:56.781Z,28.12
2022-08-09T10:17:54.857Z,28.12
2022-08-09T10:18:12.949Z,33.75
2022-08-09T10:19:12.768Z,28.12
2022-08-09T10:20:15.225Z,28.12
2022-08-09T10:21:14.158Z,28.12
2022-08-09T10:22:14.747Z,28.12
2022-08-09T10:23:16.997Z,28.12
2022-08-09T10:24:25.630Z,28.12
2022-08-09T10:25:21.621Z,28.12
2022-08-09T10:26:19.394Z,28.12
2022-08-09T10:27:22.198Z,28.12
2022-08-09T10:28:20.625Z,28.12
2022-08-09T10:29:32.780Z,28.12
2022-08-09T10:32:42.212Z,28.12
2022-08-09T10:34:08.940Z,28.12
2022-08-09T10:34:33.280Z,28.12
2022-08-09T10:35:25.501Z,28.12
2022-08-09T10:36:25.194Z,28.12
2022-08-09T10:37:25.722Z,28.12
2022-08-09T10:38:54.271Z,28.12
2022-08-09T10:39:28.633Z,28.12
2022-08-09T10:40:35.138Z,28.12
2022-08-09T10:41:29.377Z,28.12
2022-08-09T10:42:29.055Z,28.12
2022-08-09T10:43:46.738Z,28.12
2022-08-09T10:44:31.891Z,28.12
2022-08-09T10:45:35.363Z,28.12
2022-08-09T10:46:32.540Z,28.12
2022-08-09T10:48:17.135Z,28.12
2022-08-09T10:48:36.842Z,28.12
2022-08-09T10:49:51.007Z,28.12
2022-08-09T10:50:36.420Z,28.12
2022-08-09T10:51:40.685Z,28.12
2022-08-09T10:52:38.103Z,28.12
2022-08-09T10:53:39.481Z,28.12
2022-08-09T10:54:39.411Z,28.12
2022-08-09T10:55:58.699Z,28.12
2022-08-09T10:56:40.658Z,28.12
2022-08-09T10:57:41.824Z,28.12
2022-08-09T10:58:42.827Z,28.12
2022-08-09T10:59:55.416Z,28.12
2022-08-09T11:01:10.977Z,28.12
2022-08-09T11:03:13.977Z,28.12
2022-08-09T11:03:15.572Z,28.12
2022-08-09T11:03:51.548Z,28.12
2022-08-09T11:04:55.679Z,28.12
2022-08-09T11:06:00.541Z,28.12
2022-08-09T11:06:47.728Z,28.12
2022-08-09T11:07:57.217Z,28.12
2022-08-09T11:08:52.996Z,28.12
2022-08-09T11:09:49.262Z,28.12
2022-08-09T11:10:55.964Z,28.12
2022-08-09T11:11:52.126Z,28.12
2022-08-09T11:12:51.426Z,28.12
2022-08-09T11:13:54.352Z,28.12
2022-08-09T11:14:52.747Z,28.12
2022-08-09T11:16:04.832Z,28.12
2022-08-09T11:16:55.347Z,33.75
2022-08-09T11:18:02.637Z,28.12
2022-08-09T11:18:56.582Z,33.75
2022-08-09T11:20:10.326Z,28.12
2022-08-09T11:20:58.121Z,28.12
2022-08-09T11:22:05.252Z,28.12
2022-08-09T11:22:59.667Z,28.12
2022-08-09T11:23:59.550Z,28.12
2022-08-09T11:25:00.286Z,28.12
2022-08-09T11:26:01.763Z,28.12
2022-08-09T11:27:03.685Z,28.12
2022-08-09T11:28:27.730Z,28.12
2022-08-09T11:29:04.212Z,28.12
2022-08-09T11:30:05.662Z,28.12
2022-08-09T11:31:06.910Z,28.12
2022-08-09T11:32:05.399Z,28.12
2022-08-09T11:33:06.119Z,28.12
2022-08-09T11:34:06.959Z,28.12
2022-08-09T11:35:07.456Z,28.12
2022-08-09T11:36:08.045Z,28.12
2022-08-09T11:37:08.875Z,28.12
2022-08-09T11:38:10.579Z,28.12
2022-08-09T11:39:11.267Z,28.12
2022-08-09T11:40:11.104Z,28.12
2022-08-09T11:41:13.040Z,28.12
2022-08-09T11:42:14.830Z,28.12
2022-08-09T11:43:13.316Z,28.12
2022-08-09T11:44:13.912Z,28.12
2022-08-09T11:45:14.734Z,28.12
2022-08-09T11:46:26.692Z,28.12
2022-08-09T11:47:17.287Z,28.12
2022-08-09T11:48:24.779Z,28.12
2022-08-09T11:49:28.257Z,28.12
2022-08-09T11:50:56.475Z,28.12
2022-08-09T11:52:58.986Z,28.12
2022-08-09T11:53:16.695Z,28.12
2022-08-09T11:53:58.623Z,28.12
2022-08-09T11:54:30.091Z,28.12
2022-08-09T11:55:52.811Z,28.12
2022-08-09T11:56:23.853Z,28.12
2022-08-09T11:57:28.413Z,28.12
2022-08-09T11:58:32.313Z,28.12
2022-08-09T11:59:30.184Z,28.12
2022-08-09T12:00:27.612Z,28.12
2022-08-09T12:02:16.263Z,28.12
2022-08-09T12:02:51.150Z,28.12
2022-08-09T12:03:55.833Z,28.12
2022-08-09T12:04:32.444Z,28.12
2022-08-09T12:05:33.250Z,28.12
2022-08-09T12:06:32.780Z,28.12
2022-08-09T12:07:34.559Z,28.12
2022-08-09T12:08:32.150Z,28.12
2022-08-09T12:09:33.898Z,28.12
2022-08-09T12:10:39.667Z,28.12
2022-08-09T12:11:44.701Z,28.12
2022-08-09T12:12:35.256Z,28.12
2022-08-09T12:14:09.950Z,28.12
2022-08-09T12:14:58.916Z,28.12
2022-08-09T12:15:50.173Z,28.12
2022-08-09T12:16:39.986Z,28.12
2022-08-09T12:17:43.595Z,28.12
2022-08-09T12:18:39.718Z,28.12
2022-08-09T12:19:40.176Z,28.12
2022-08-09T12:20:40.515Z,28.12
2022-08-09T12:21:48.465Z,28.12
2022-08-09T12:22:42.970Z,28.12
2022-08-09T12:23:56.568Z,28.12
2022-08-09T12:24:44.257Z,28.12
2022-08-09T12:25:49.428Z,28.12
2022-08-09T12:29:11.075Z,28.12
2022-08-09T12:29:13.736Z,28.12
2022-08-09T12:29:13.810Z,28.12
2022-08-09T12:29:54.677Z,28.12
2022-08-09T12:30:48.822Z,28.12
2022-08-09T12:32:01.948Z,28.12
2022-08-09T12:32:50.347Z,28.12
2022-08-09T12:33:58.381Z,28.12
2022-08-09T12:34:51.900Z,28.12
2022-08-09T12:35:51.772Z,28.12
2022-08-09T12:36:52.584Z,28.12
2022-08-09T12:37:54.295Z,28.12
2022-08-09T12:38:54.125Z,28.12
2022-08-09T12:39:54.969Z,28.12
2022-08-09T12:40:55.841Z,28.12
2022-08-09T12:41:56.650Z,28.12
2022-08-09T12:42:57.571Z,28.12
2022-08-09T12:44:06.526Z,28.12
2022-08-09T12:45:00.239Z,28.12
2022-08-09T12:46:00.650Z,28.12
2022-08-09T12:47:00.576Z,28.12
2022-08-09T12:48:01.406Z,28.12
2022-08-09T12:49:02.033Z,28.12
2022-08-09T12:50:02.869Z,28.12
2022-08-09T12:51:04.297Z,28.12
2022-08-09T12:52:04.668Z,28.12
2022-08-09T12:53:18.413Z,28.12
2022-08-09T12:54:07.199Z,28.12
2022-08-09T12:56:11.525Z,28.12
2022-08-09T12:56:15.995Z,28.12
2022-08-09T12:57:09.473Z,28.12
2022-08-09T12:58:09.133Z,28.12
2022-08-09T12:59:10.839Z,28.12
2022-08-09T13:00:10.602Z,28.12
2022-08-09T13:01:11.290Z,28.12
2022-08-09T13:02:12.098Z,28.12
2022-08-09T13:03:20.625Z,28.12
2022-08-09T13:04:35.946Z,28.12
2022-08-09T13:05:15.420Z,28.12
2022-08-09T13:06:19.649Z,28.12
2022-08-09T13:07:19.795Z,28.12
2022-08-09T13:08:17.373Z,28.12
2022-08-09T13:09:17.075Z,28.12
2022-08-09T13:10:17.915Z,28.12
2022-08-09T13:11:24.293Z,28.12
2022-08-09T13:12:20.463Z,28.12
2022-08-09T13:13:19.990Z,28.12
2022-08-09T13:14:42.411Z,28.12